Time,TemperatureF,DewpointF,PressureIn,WindDirection,WindDirectionDegrees,WindSpeedMPH,WindSpeedGustMPH,Humidity,HourlyPrecipIn,Conditions,Clouds,dailyrainin,SolarRadiationWatts/m^2,SoftwareType,DateUTC
2013-09-12 00:02:00,64.0,39.0,-100.00,East,89,2.0,4.0,40,0.00,,,0.00,0.000000,,2013-09-12 07:02:00,
2013-09-12 00:12:00,64.0,39.0,-100.00,East,89,2.0,4.0,40,0.00,,,0.00,0.000000,,2013-09-12 07:12:00,
2013-09-12 01:42:00,63.0,44.0,-100.00,SE,130,0.0,4.0,50,-99.99,,,0.00,0.000000,,2013-09-12 08:42:00,
2013-09-12 01:52:00,63.0,44.0,-100.00,SE,130,0.0,4.0,50,-99.99,,,0.00,0.000000,,2013-09-12 08:52:00,
2013-09-12 02:02:00,63.0,44.0,-100.00,SE,130,0.0,4.0,50,-99.99,,,0.00,0.000000,,2013-09-12 09:02:00,
2013-09-12 02:12:00,63.0,44.0,-100.00,SE,130,0.0,4.0,50,-99.99,,,0.00,0.000000,,2013-09-12 09:12:00,
2013-09-12 02:43:00,62.0,40.0,-100.00,NNE,27,0.0,4.0,45,0.00,,,0.00,0.000000,,2013-09-12 09:43:00,
2013-09-12 02:53:00,62.0,40.0,-100.00,NNE,27,0.0,4.0,45,0.00,,,0.00,0.000000,,2013-09-12 09:53:00,
2013-09-12 03:03:00,62.0,40.0,-100.00,NNE,27,0.0,4.0,45,0.00,,,0.00,0.000000,,2013-09-12 10:03:00,
2013-09-12 03:12:00,62.0,40.0,-100.00,NNE,27,0.0,4.0,45,0.00,,,0.00,0.000000,,2013-09-12 10:12:00,
2013-09-12 03:43:00,61.0,40.0,-100.00,SE,134,0.0,4.0,46,0.00,,,0.00,0.000000,,2013-09-12 10:43:00,
2013-09-12 03:53:00,61.0,40.0,-100.00,SE,134,0.0,4.0,46,0.00,,,0.00,0.000000,,2013-09-12 10:53:00,
2013-09-12 04:03:00,61.0,40.0,-100.00,SE,134,0.0,4.0,46,0.00,,,0.00,0.000000,,2013-09-12 11:03:00,
2013-09-12 04:11:00,61.0,40.0,-100.00,SE,134,0.0,4.0,46,0.00,,,0.00,0.000000,,2013-09-12 11:11:00,
2013-09-12 05:42:00,61.0,36.0,-100.00,ENE,74,0.0,4.0,40,-99.99,,,0.00,0.000000,,2013-09-12 12:42:00,
2013-09-12 05:52:00,61.0,36.0,-100.00,ENE,74,0.0,4.0,40,-99.99,,,0.00,0.000000,,2013-09-12 12:52:00,
2013-09-12 06:02:00,61.0,36.0,-100.00,ENE,74,0.0,4.0,40,-99.99,,,0.00,0.000000,,2013-09-12 13:02:00,
2013-09-12 06:11:00,61.0,36.0,-100.00,ENE,74,0.0,4.0,40,-99.99,,,0.00,0.000000,,2013-09-12 13:11:00,
2013-09-12 06:42:00,62.0,37.0,-100.00,WSW,247,0.0,4.0,39,0.00,,,0.00,0.000000,,2013-09-12 13:42:00,
2013-09-12 06:52:00,62.0,37.0,-100.00,WSW,247,0.0,4.0,39,0.00,,,0.00,0.000000,,2013-09-12 13:52:00,
2013-09-12 07:02:00,62.0,37.0,-100.00,WSW,247,0.0,4.0,39,0.00,,,0.00,0.000000,,2013-09-12 14:02:00,
2013-09-12 07:11:00,62.0,37.0,-100.00,WSW,247,0.0,4.0,39,0.00,,,0.00,0.000000,,2013-09-12 14:11:00,
2013-09-12 07:42:00,62.0,39.0,-100.00,ENE,64,0.0,4.0,42,0.00,,,0.00,15.000000,,2013-09-12 14:42:00,
2013-09-12 07:52:00,62.0,39.0,-100.00,ENE,64,0.0,4.0,42,0.00,,,0.00,15.000000,,2013-09-12 14:52:00,
2013-09-12 08:02:00,62.0,39.0,-100.00,ENE,64,0.0,4.0,42,0.00,,,0.00,15.000000,,2013-09-12 15:02:00,
2013-09-12 08:11:00,62.0,39.0,-100.00,ENE,64,0.0,4.0,42,0.00,,,0.00,15.000000,,2013-09-12 15:11:00,
2013-09-12 08:44:00,72.0,40.0,-100.00,West,260,0.0,3.0,31,0.00,,,0.00,224.000000,,2013-09-12 15:44:00,
2013-09-12 08:54:00,72.0,40.0,-100.00,West,260,0.0,3.0,31,0.00,,,0.00,224.000000,,2013-09-12 15:54:00,
2013-09-12 09:03:00,72.0,40.0,-100.00,West,260,0.0,3.0,31,0.00,,,0.00,224.000000,,2013-09-12 16:03:00,
2013-09-12 09:13:00,72.0,40.0,-100.00,West,260,0.0,3.0,31,0.00,,,0.00,224.000000,,2013-09-12 16:13:00,
2013-09-12 09:43:00,81.0,40.0,-100.00,West,273,2.0,5.0,23,0.00,,,0.00,434.000000,,2013-09-12 16:43:00,
2013-09-12 09:53:00,81.0,40.0,-100.00,West,273,2.0,5.0,23,0.00,,,0.00,434.000000,,2013-09-12 16:53:00,
2013-09-12 10:03:00,81.0,40.0,-100.00,West,273,2.0,5.0,23,0.00,,,0.00,434.000000,,2013-09-12 17:03:00,
2013-09-12 10:12:00,81.0,40.0,-100.00,West,273,2.0,5.0,23,0.00,,,0.00,434.000000,,2013-09-12 17:12:00,
2013-09-12 10:43:00,84.0,43.0,-100.00,West,260,4.0,8.0,24,0.00,,,0.00,622.000000,,2013-09-12 17:43:00,
2013-09-12 10:53:00,84.0,43.0,-100.00,West,260,4.0,8.0,24,0.00,,,0.00,622.000000,,2013-09-12 17:53:00,
2013-09-12 11:02:00,84.0,43.0,-100.00,West,260,4.0,8.0,24,0.00,,,0.00,622.000000,,2013-09-12 18:02:00,
2013-09-12 11:12:00,84.0,43.0,-100.00,West,260,4.0,8.0,24,0.00,,,0.00,622.000000,,2013-09-12 18:12:00,
2013-09-12 11:42:00,91.0,29.0,-100.00,West,275,3.0,7.0,11,0.00,,,0.00,765.000000,,2013-09-12 18:42:00,
2013-09-12 11:52:00,91.0,29.0,-100.00,West,275,3.0,7.0,11,0.00,,,0.00,765.000000,,2013-09-12 18:52:00,
2013-09-12 12:02:00,91.0,29.0,-100.00,West,275,3.0,7.0,11,0.00,,,0.00,765.000000,,2013-09-12 19:02:00,
2013-09-12 12:12:00,91.0,29.0,-100.00,West,275,3.0,7.0,11,0.00,,,0.00,765.000000,,2013-09-12 19:12:00,
2013-09-12 12:52:00,93.0,23.0,-100.00,West,268,4.0,9.0,8,0.00,,,0.00,825.000000,,2013-09-12 19:52:00,
2013-09-12 13:02:00,93.0,23.0,-100.00,West,268,4.0,9.0,8,0.00,,,0.00,825.000000,,2013-09-12 20:02:00,
2013-09-12 13:11:00,93.0,23.0,-100.00,West,268,4.0,9.0,8,0.00,,,0.00,825.000000,,2013-09-12 20:11:00,
2013-09-12 13:42:00,96.0,25.0,-100.00,WNW,300,4.0,10.0,8,0.00,,,0.00,708.000000,,2013-09-12 20:42:00,
2013-09-12 13:52:00,96.0,25.0,-100.00,WNW,300,4.0,10.0,8,0.00,,,0.00,708.000000,,2013-09-12 20:52:00,
2013-09-12 14:02:00,96.0,25.0,-100.00,WNW,300,4.0,10.0,8,0.00,,,0.00,708.000000,,2013-09-12 21:02:00,
2013-09-12 14:11:00,96.0,25.0,-100.00,WNW,300,4.0,10.0,8,0.00,,,0.00,708.000000,,2013-09-12 21:11:00,
2013-09-12 14:43:00,99.0,30.0,-100.00,West,272,5.0,12.0,9,0.00,,,0.00,811.000000,,2013-09-12 21:43:00,
2013-09-12 14:54:00,99.0,30.0,-100.00,West,272,5.0,12.0,9,0.00,,,0.00,811.000000,,2013-09-12 21:54:00,
2013-09-12 15:04:00,99.0,30.0,-100.00,West,272,5.0,12.0,9,0.00,,,0.00,811.000000,,2013-09-12 22:04:00,
2013-09-12 15:13:00,99.0,30.0,-100.00,West,272,5.0,12.0,9,0.00,,,0.00,811.000000,,2013-09-12 22:13:00,
2013-09-12 15:43:00,97.0,29.0,-100.00,West,266,8.0,15.0,9,0.00,,,0.00,703.000000,,2013-09-12 22:43:00,
2013-09-12 15:54:00,97.0,29.0,-100.00,West,266,8.0,15.0,9,0.00,,,0.00,703.000000,,2013-09-12 22:54:00,
2013-09-12 16:04:00,97.0,29.0,-100.00,West,266,8.0,15.0,9,0.00,,,0.00,703.000000,,2013-09-12 23:04:00,
2013-09-12 16:12:00,97.0,29.0,-100.00,West,266,8.0,15.0,9,0.00,,,0.00,703.000000,,2013-09-12 23:12:00,
2013-09-12 16:43:00,97.0,31.0,-100.00,West,280,6.0,12.0,10,0.00,,,0.00,548.000000,,2013-09-12 23:43:00,
2013-09-12 16:52:00,97.0,31.0,-100.00,West,280,6.0,12.0,10,0.00,,,0.00,548.000000,,2013-09-12 23:52:00,
2013-09-12 17:01:00,97.0,31.0,-100.00,West,280,6.0,12.0,10,0.00,,,0.00,548.000000,,2013-09-13 00:01:00,
2013-09-12 17:11:00,97.0,31.0,-100.00,West,280,6.0,12.0,10,0.00,,,0.00,548.000000,,2013-09-13 00:11:00,
2013-09-12 17:42:00,94.0,38.0,-100.00,West,275,7.0,14.0,14,0.00,,,0.00,346.000000,,2013-09-13 00:42:00,
2013-09-12 17:52:00,94.0,38.0,-100.00,West,275,7.0,14.0,14,0.00,,,0.00,346.000000,,2013-09-13 00:52:00,
2013-09-12 18:01:00,94.0,38.0,-100.00,West,275,7.0,14.0,14,0.00,,,0.00,346.000000,,2013-09-13 01:01:00,
2013-09-12 18:11:00,94.0,38.0,-100.00,West,275,7.0,14.0,14,0.00,,,0.00,346.000000,,2013-09-13 01:11:00,
2013-09-12 18:42:00,89.0,41.0,-100.00,WSW,255,6.0,11.0,19,0.00,,,0.00,148.000000,,2013-09-13 01:42:00,
2013-09-12 18:52:00,89.0,41.0,-100.00,WSW,255,6.0,11.0,19,0.00,,,0.00,148.000000,,2013-09-13 01:52:00,
2013-09-12 19:02:00,89.0,41.0,-100.00,WSW,255,6.0,11.0,19,0.00,,,0.00,148.000000,,2013-09-13 02:02:00,
2013-09-12 19:11:00,89.0,41.0,-100.00,WSW,255,6.0,11.0,19,0.00,,,0.00,148.000000,,2013-09-13 02:11:00,
2013-09-12 19:43:00,81.0,36.0,-100.00,SE,125,0.0,9.0,20,0.00,,,0.00,14.000000,,2013-09-13 02:43:00,
2013-09-12 19:53:00,81.0,36.0,-100.00,SE,125,0.0,9.0,20,0.00,,,0.00,14.000000,,2013-09-13 02:53:00,
2013-09-12 20:02:00,81.0,36.0,-100.00,SE,125,0.0,9.0,20,0.00,,,0.00,14.000000,,2013-09-13 03:02:00,
2013-09-12 20:11:00,81.0,36.0,-100.00,SE,125,0.0,9.0,20,0.00,,,0.00,14.000000,,2013-09-13 03:11:00,
2013-09-12 20:45:00,76.0,41.0,-100.00,East,84,1.0,5.0,29,0.00,,,0.00,0.000000,,2013-09-13 03:45:00,
2013-09-12 20:55:00,76.0,41.0,-100.00,East,84,1.0,5.0,29,0.00,,,0.00,0.000000,,2013-09-13 03:55:00,
2013-09-12 21:04:00,76.0,41.0,-100.00,East,84,1.0,5.0,29,0.00,,,0.00,0.000000,,2013-09-13 04:04:00,
2013-09-12 21:14:00,76.0,41.0,-100.00,East,84,1.0,5.0,29,0.00,,,0.00,0.000000,,2013-09-13 04:14:00,
2013-09-12 21:44:00,73.0,41.0,-100.00,ESE,106,0.0,6.0,32,0.00,,,0.00,0.000000,,2013-09-13 04:44:00,
2013-09-12 21:54:00,73.0,41.0,-100.00,ESE,106,0.0,6.0,32,0.00,,,0.00,0.000000,,2013-09-13 04:54:00,
2013-09-12 22:03:00,73.0,41.0,-100.00,ESE,106,0.0,6.0,32,0.00,,,0.00,0.000000,,2013-09-13 05:03:00,
2013-09-12 22:13:00,73.0,41.0,-100.00,ESE,106,0.0,6.0,32,0.00,,,0.00,0.000000,,2013-09-13 05:13:00,
2013-09-12 22:43:00,71.0,40.0,-100.00,SE,130,0.0,6.0,33,0.00,,,0.00,0.000000,,2013-09-13 05:43:00,
2013-09-12 22:53:00,71.0,40.0,-100.00,SE,130,0.0,6.0,33,0.00,,,0.00,0.000000,,2013-09-13 05:53:00,
2013-09-12 23:02:00,71.0,40.0,-100.00,SE,130,0.0,6.0,33,0.00,,,0.00,0.000000,,2013-09-13 06:02:00,
2013-09-12 23:12:00,71.0,40.0,-100.00,SE,130,0.0,6.0,33,0.00,,,0.00,0.000000,,2013-09-13 06:12:00,
2013-09-12 23:42:00,71.0,43.0,-100.00,ENE,76,0.0,4.0,36,0.00,,,0.00,0.000000,,2013-09-13 06:42:00,
2013-09-12 23:52:00,71.0,43.0,-100.00,ENE,76,0.0,4.0,36,0.00,,,0.00,0.000000,,2013-09-13 06:52:00,